createdAt,value
2019-05-07T00:02:25.013Z,40.80
2019-05-07T00:05:17.637Z,40.80
2019-05-07T00:08:12.077Z,40.90
2019-05-07T00:11:04.733Z,40.90
2019-05-07T00:13:58.708Z,40.90
2019-05-07T00:16:53.309Z,41.00
2019-05-07T00:19:44.947Z,40.90
2019-05-07T00:22:37.657Z,40.80
2019-05-07T00:25:30.073Z,40.90
2019-05-07T00:28:23.061Z,40.90
2019-05-07T00:31:15.987Z,40.90
2019-05-07T00:34:08.956Z,40.90
2019-05-07T00:37:07.007Z,41.00
2019-05-07T00:40:12.931Z,41.00
2019-05-07T00:43:17.629Z,41.10
2019-05-07T00:46:34.932Z,41.00
2019-05-07T00:49:28.472Z,41.10
2019-05-07T00:52:22.572Z,41.20
2019-05-07T00:55:14.336Z,41.10
2019-05-07T00:58:06.575Z,41.10
2019-05-07T01:00:59.243Z,41.20
2019-05-07T01:03:53.383Z,41.20
2019-05-07T01:06:46.365Z,41.30
2019-05-07T01:09:39.002Z,41.30
2019-05-07T01:12:32.855Z,41.40
2019-05-07T01:15:31.072Z,41.30
2019-05-07T01:18:23.542Z,41.30
2019-05-07T01:21:16.632Z,41.30
2019-05-07T01:24:12.241Z,41.20
2019-05-07T01:27:05.079Z,41.20
2019-05-07T01:29:57.900Z,41.10
2019-05-07T01:32:58.456Z,41.40
2019-05-07T01:36:07.566Z,41.30
2019-05-07T01:39:02.644Z,41.20
2019-05-07T01:41:56.923Z,41.20
2019-05-07T01:44:52.863Z,41.20
2019-05-07T01:47:46.813Z,41.20
2019-05-07T01:50:40.046Z,41.20
2019-05-07T01:53:33.566Z,41.20
2019-05-07T01:56:27.019Z,41.20
2019-05-07T01:59:22.501Z,41.10
2019-05-07T02:02:23.067Z,41.10
2019-05-07T02:05:36.605Z,41.20
2019-05-07T02:08:46.052Z,41.10
2019-05-07T02:11:42.338Z,41.10
2019-05-07T02:14:35.026Z,41.10
2019-05-07T02:17:28.874Z,41.00
2019-05-07T02:20:22.888Z,41.00
2019-05-07T02:23:15.555Z,41.00
2019-05-07T02:26:07.894Z,41.00
2019-05-07T02:29:02.753Z,40.90
2019-05-07T02:31:57.648Z,41.00
2019-05-07T02:34:50.326Z,41.00
2019-05-07T02:37:56.188Z,41.00
2019-05-07T02:40:49.132Z,41.00
2019-05-07T02:43:43.023Z,41.10
2019-05-07T02:46:43.483Z,41.10
2019-05-07T02:49:43.862Z,41.10
2019-05-07T02:53:08.277Z,41.20
2019-05-07T02:56:03.615Z,41.20
2019-05-07T02:58:57.254Z,41.20
2019-05-07T03:01:53.457Z,41.20
2019-05-07T03:04:45.478Z,41.20
2019-05-07T03:07:42.507Z,41.20
2019-05-07T03:10:33.948Z,41.20
2019-05-07T03:13:28.374Z,41.30
2019-05-07T03:16:38.769Z,41.30
2019-05-07T03:19:18.574Z,41.20
2019-05-07T03:22:13.863Z,41.20
2019-05-07T03:25:13.390Z,41.20
2019-05-07T03:28:04.497Z,41.20
2019-05-07T03:31:06.415Z,41.20
2019-05-07T03:34:19.371Z,41.10
2019-05-07T03:37:14.110Z,41.10
2019-05-07T03:40:05.904Z,41.20
2019-05-07T03:43:01.647Z,41.10
2019-05-07T03:46:10.091Z,41.20
2019-05-07T03:49:03.996Z,41.10
2019-05-07T03:51:58.105Z,41.20
2019-05-07T03:54:50.570Z,41.10
2019-05-07T03:57:44.538Z,41.20
2019-05-07T04:00:37.231Z,41.20
2019-05-07T04:03:33.669Z,41.00
2019-05-07T04:06:25.945Z,41.10
2019-05-07T04:09:18.803Z,41.20
2019-05-07T04:12:13.134Z,41.10
2019-05-07T04:15:04.723Z,41.10
2019-05-07T04:17:57.888Z,41.10
2019-05-07T04:20:50.021Z,41.10
2019-05-07T04:23:43.960Z,41.10
2019-05-07T04:26:43.111Z,41.10
2019-05-07T04:29:36.150Z,41.10
2019-05-07T04:32:34.947Z,41.10
2019-05-07T04:35:37.735Z,41.10
2019-05-07T04:38:33.583Z,41.00
2019-05-07T04:41:28.256Z,41.00
2019-05-07T04:44:23.515Z,41.00
2019-05-07T04:47:32.779Z,41.10
2019-05-07T04:50:34.643Z,41.10
2019-05-07T04:53:13.886Z,41.30
2019-05-07T04:56:07.502Z,42.90
2019-05-07T04:59:03.636Z,39.80
2019-05-07T05:02:07.403Z,39.50
2019-05-07T05:05:03.313Z,39.60
2019-05-07T05:07:55.570Z,47.60
2019-05-07T05:10:50.126Z,50.20
2019-05-07T05:13:45.846Z,47.30
2019-05-07T05:16:43.758Z,43.80
2019-05-07T05:19:41.100Z,41.10
2019-05-07T05:22:53.206Z,39.10
2019-05-07T05:25:52.262Z,37.10
2019-05-07T05:28:58.120Z,35.40
2019-05-07T05:31:52.949Z,34.10
2019-05-07T05:34:47.513Z,32.90
2019-05-07T05:37:42.785Z,32.00
2019-05-07T05:40:36.665Z,31.40
2019-05-07T05:43:55.201Z,31.00
2019-05-07T05:46:48.659Z,31.00
2019-05-07T05:49:45.607Z,30.90
2019-05-07T05:52:52.034Z,31.00
2019-05-07T05:55:58.377Z,31.80
2019-05-07T05:59:02.818Z,32.50
2019-05-07T06:02:19.182Z,33.00
2019-05-07T06:05:34.229Z,33.10
2019-05-07T06:08:37.609Z,33.10
2019-05-07T06:11:55.029Z,33.20
2019-05-07T06:15:01.796Z,33.00
2019-05-07T06:18:21.021Z,33.00
2019-05-07T06:21:32.247Z,31.90
2019-05-07T06:24:38.752Z,31.50
2019-05-07T06:27:41.874Z,31.50
2019-05-07T06:30:41.673Z,31.30
2019-05-07T06:33:39.076Z,31.10
2019-05-07T06:36:37.473Z,31.20
2019-05-07T06:39:38.035Z,31.40
2019-05-07T06:42:54.050Z,31.40
2019-05-07T06:45:54.502Z,32.00
2019-05-07T06:48:49.789Z,31.60
2019-05-07T06:51:47.576Z,31.50
2019-05-07T06:54:39.931Z,31.80
2019-05-07T06:57:36.602Z,31.20
2019-05-07T07:00:46.758Z,31.20
2019-05-07T07:04:03.547Z,31.10
2019-05-07T07:07:27.289Z,30.50
2019-05-07T07:10:22.863Z,30.60
2019-05-07T07:13:15.233Z,30.10
2019-05-07T07:16:13.339Z,30.40
2019-05-07T07:19:06.441Z,30.30
2019-05-07T07:22:02.219Z,30.40
2019-05-07T07:24:54.493Z,30.00
2019-05-07T07:27:47.431Z,29.40
2019-05-07T07:31:06.490Z,29.70
2019-05-07T07:34:02.457Z,30.00
2019-05-07T07:37:15.764Z,30.00
2019-05-07T07:40:34.933Z,29.90
2019-05-07T07:43:29.191Z,30.00
2019-05-07T07:46:24.331Z,29.40
2019-05-07T07:49:17.444Z,29.30
2019-05-07T07:52:12.235Z,29.80
2019-05-07T07:55:05.805Z,29.80
2019-05-07T07:58:07.033Z,29.50
2019-05-07T08:01:14.257Z,29.70
2019-05-07T08:04:09.047Z,30.00
2019-05-07T08:07:06.505Z,29.90
2019-05-07T08:10:06.750Z,29.60
2019-05-07T08:13:02.314Z,29.50
2019-05-07T08:15:58.948Z,30.00
2019-05-07T08:18:53.744Z,29.90
2019-05-07T08:21:52.026Z,29.90
2019-05-07T08:24:46.544Z,30.20
2019-05-07T08:27:42.277Z,30.70
2019-05-07T08:30:38.513Z,31.60
2019-05-07T08:33:36.467Z,32.20
2019-05-07T08:36:28.904Z,33.00
2019-05-07T08:39:24.861Z,32.70
2019-05-07T08:42:16.683Z,32.50
2019-05-07T08:45:27.405Z,32.60
2019-05-07T08:48:32.043Z,32.50
2019-05-07T08:51:25.137Z,33.70
2019-05-07T08:54:18.276Z,33.70
2019-05-07T08:57:12.128Z,33.30
2019-05-07T09:00:07.290Z,33.80
2019-05-07T09:03:01.705Z,34.20
2019-05-07T09:05:55.892Z,33.90
2019-05-07T09:08:50.052Z,33.80
2019-05-07T09:11:43.079Z,34.00
2019-05-07T09:14:36.719Z,34.10
2019-05-07T09:17:33.444Z,34.00
2019-05-07T09:20:27.505Z,33.80
2019-05-07T09:23:22.247Z,34.00
2019-05-07T09:26:21.996Z,34.70
2019-05-07T09:29:28.504Z,34.70
2019-05-07T09:32:28.104Z,34.60
2019-05-07T09:35:26.301Z,34.90
2019-05-07T09:38:22.200Z,34.60
2019-05-07T09:41:29.715Z,34.00
2019-05-07T09:44:24.934Z,34.00
2019-05-07T09:47:21.767Z,34.00
2019-05-07T09:50:16.356Z,33.90
2019-05-07T09:53:12.559Z,34.70
2019-05-07T09:56:06.062Z,34.90
2019-05-07T09:59:02.016Z,34.80
2019-05-07T10:01:56.379Z,34.90
2019-05-07T10:04:49.212Z,34.90
2019-05-07T10:07:44.087Z,35.20
2019-05-07T10:10:36.582Z,34.80
2019-05-07T10:13:39.594Z,34.60
2019-05-07T10:16:44.415Z,34.90
2019-05-07T10:19:37.121Z,34.90
2019-05-07T10:22:32.125Z,34.90
2019-05-07T10:25:28.257Z,34.80
2019-05-07T10:28:26.590Z,34.20
2019-05-07T10:31:22.232Z,34.30
2019-05-07T10:34:14.955Z,34.00
2019-05-07T10:37:12.862Z,34.10
2019-05-07T10:40:05.257Z,33.90
2019-05-07T10:42:58.322Z,33.80
2019-05-07T10:46:19.451Z,34.10
2019-05-07T10:49:20.065Z,34.90
2019-05-07T10:52:14.066Z,34.10
2019-05-07T10:55:11.898Z,33.70
2019-05-07T10:58:12.451Z,34.00
2019-05-07T11:01:07.994Z,34.40
2019-05-07T11:04:02.198Z,34.10
2019-05-07T11:07:00.622Z,34.70
2019-05-07T11:09:58.110Z,34.30
2019-05-07T11:12:55.742Z,34.00
2019-05-07T11:15:54.728Z,34.70
2019-05-07T11:18:53.296Z,34.30
2019-05-07T11:21:52.092Z,34.10
2019-05-07T11:24:46.718Z,35.00
2019-05-07T11:27:42.121Z,34.00
2019-05-07T11:30:38.953Z,34.20
2019-05-07T11:33:32.721Z,34.50
2019-05-07T11:36:26.785Z,34.10
2019-05-07T11:39:20.139Z,34.10
2019-05-07T11:42:36.344Z,34.20
2019-05-07T11:45:35.127Z,34.30
2019-05-07T11:48:28.787Z,34.20
2019-05-07T11:51:30.242Z,34.90
2019-05-07T11:54:24.829Z,35.00
2019-05-07T11:57:18.922Z,34.60
2019-05-07T12:00:45.707Z,35.50
2019-05-07T12:03:39.155Z,35.20
2019-05-07T12:06:32.779Z,35.10
2019-05-07T12:09:39.683Z,35.20
2019-05-07T12:12:38.579Z,34.60
2019-05-07T12:15:33.953Z,34.30
2019-05-07T12:22:42.319Z,33.90
2019-05-07T12:25:35.223Z,40.40
2019-05-07T12:28:29.408Z,38.30
2019-05-07T12:31:47.576Z,36.40
2019-05-07T12:34:45.845Z,36.40
2019-05-07T12:37:42.820Z,36.60
2019-05-07T12:40:41.780Z,35.90
2019-05-07T12:43:35.162Z,36.40
2019-05-07T12:46:27.678Z,36.90
2019-05-07T12:49:21.994Z,35.80
2019-05-07T12:52:22.774Z,35.20
2019-05-07T12:55:23.854Z,36.10
2019-05-07T12:58:18.323Z,36.70
2019-05-07T13:01:18.806Z,36.90
2019-05-07T13:04:14.631Z,36.50
2019-05-07T13:07:16.010Z,36.90
2019-05-07T13:10:09.476Z,37.00
2019-05-07T13:13:02.807Z,37.00
2019-05-07T13:15:56.200Z,37.10
2019-05-07T13:18:52.481Z,37.10
2019-05-07T13:21:49.962Z,36.80
2019-05-07T13:24:43.128Z,36.50
2019-05-07T13:27:36.646Z,36.40
2019-05-07T13:30:31.232Z,36.20
2019-05-07T13:33:25.138Z,36.30
2019-05-07T13:36:18.774Z,36.20
2019-05-07T13:39:33.271Z,36.20
2019-05-07T13:42:44.353Z,36.40
2019-05-07T13:45:49.158Z,36.40
2019-05-07T13:48:45.723Z,36.50
2019-05-07T13:51:39.141Z,36.50
2019-05-07T13:54:32.481Z,36.50
2019-05-07T13:57:26.496Z,36.50
2019-05-07T14:00:26.996Z,36.60
2019-05-07T14:03:22.243Z,36.70
2019-05-07T14:06:17.992Z,36.80
2019-05-07T14:09:16.917Z,36.80
2019-05-07T14:12:12.153Z,36.90
2019-05-07T14:15:07.076Z,36.90
2019-05-07T14:18:02.225Z,37.00
2019-05-07T14:20:56.344Z,37.00
2019-05-07T14:23:52.089Z,37.10
2019-05-07T14:26:45.877Z,37.10
2019-05-07T14:29:38.286Z,37.20
2019-05-07T14:32:49.399Z,37.30
2019-05-07T14:35:58.304Z,37.20
2019-05-07T14:38:52.282Z,37.30
2019-05-07T14:41:47.550Z,37.40
2019-05-07T14:44:52.719Z,37.40
2019-05-07T14:47:44.960Z,37.50
2019-05-07T14:50:39.312Z,37.60
2019-05-07T14:53:33.024Z,37.60
2019-05-07T14:56:28.477Z,37.70
2019-05-07T14:59:23.202Z,37.70
2019-05-07T15:02:18.539Z,37.70
2019-05-07T15:05:13.073Z,37.70
2019-05-07T15:08:10.900Z,37.80
2019-05-07T15:11:02.979Z,37.80
2019-05-07T15:13:55.477Z,37.90
2019-05-07T15:16:50.729Z,37.90
2019-05-07T15:19:46.361Z,37.90
2019-05-07T15:22:49.600Z,37.90
2019-05-07T15:25:39.840Z,38.00
2019-05-07T15:28:36.191Z,38.00
2019-05-07T15:31:47.331Z,38.00
2019-05-07T15:34:41.974Z,38.00
2019-05-07T15:37:34.289Z,38.00
2019-05-07T15:40:28.221Z,38.10
2019-05-07T15:43:21.034Z,38.00
2019-05-07T15:46:14.865Z,38.10
2019-05-07T15:49:07.474Z,38.10
2019-05-07T15:52:02.881Z,38.00
2019-05-07T15:54:55.817Z,38.10
2019-05-07T15:57:48.511Z,38.20
2019-05-07T16:00:42.534Z,38.10
2019-05-07T16:03:42.957Z,38.20
2019-05-07T16:06:36.294Z,38.20
2019-05-07T16:09:32.630Z,38.20
2019-05-07T16:12:26.513Z,38.20
2019-05-07T16:15:22.511Z,38.20
2019-05-07T16:18:23.640Z,38.30
2019-05-07T16:21:16.396Z,38.50
2019-05-07T16:24:12.182Z,38.40
2019-05-07T16:27:06.234Z,38.40
2019-05-07T16:30:01.036Z,38.40
2019-05-07T16:32:55.516Z,38.40
2019-05-07T16:35:50.336Z,38.50
2019-05-07T16:41:44.126Z,38.50
2019-05-07T16:44:37.263Z,38.50
2019-05-07T16:47:30.454Z,38.50
2019-05-07T16:50:23.688Z,38.50
2019-05-07T16:53:27.501Z,38.50
2019-05-07T16:56:12.422Z,38.60
2019-05-07T16:59:07.913Z,38.70
2019-05-07T17:02:04.236Z,38.70
2019-05-07T17:05:12.328Z,38.70
2019-05-07T17:08:22.338Z,38.80
2019-05-07T17:11:15.336Z,38.80
2019-05-07T17:14:08.166Z,38.80
2019-05-07T17:17:02.526Z,38.90
2019-05-07T17:19:55.785Z,38.90
2019-05-07T17:22:49.468Z,39.00
2019-05-07T17:25:42.844Z,38.90
2019-05-07T17:28:35.537Z,39.00
2019-05-07T17:31:31.769Z,39.00
2019-05-07T17:34:24.736Z,39.10
2019-05-07T17:37:18.156Z,39.10
2019-05-07T17:40:12.409Z,39.10
2019-05-07T17:43:06.613Z,39.20
2019-05-07T17:46:02.640Z,39.10
2019-05-07T17:48:56.254Z,39.20
2019-05-07T17:51:52.466Z,39.10
2019-05-07T17:54:46.563Z,39.20
2019-05-07T17:57:41.782Z,39.20
2019-05-07T18:00:37.314Z,39.20
2019-05-07T18:03:34.695Z,39.20
2019-05-07T18:06:28.976Z,39.20
2019-05-07T18:09:23.174Z,39.30
2019-05-07T18:12:17.153Z,39.30
2019-05-07T18:15:12.639Z,39.30
2019-05-07T18:18:08.967Z,39.30
2019-05-07T18:21:02.317Z,39.40
2019-05-07T18:23:55.407Z,39.40
2019-05-07T18:26:48.199Z,39.40
2019-05-07T18:29:42.721Z,39.40
2019-05-07T18:32:39.423Z,39.40
2019-05-07T18:35:32.616Z,39.50
2019-05-07T18:38:25.494Z,39.60
2019-05-07T18:41:18.327Z,39.60
2019-05-07T18:44:13.498Z,39.70
2019-05-07T18:47:07.311Z,39.70
2019-05-07T18:50:02.845Z,39.70
2019-05-07T18:52:57.061Z,39.70
2019-05-07T18:55:51.733Z,39.80
2019-05-07T18:58:47.007Z,39.80
2019-05-07T19:01:42.198Z,39.80
2019-05-07T19:04:34.803Z,39.90
2019-05-07T19:07:28.907Z,39.90
2019-05-07T19:10:23.205Z,39.90
2019-05-07T19:13:18.411Z,40.00
2019-05-07T19:16:12.548Z,40.00
2019-05-07T19:19:06.003Z,40.10
2019-05-07T19:21:59.522Z,40.10
2019-05-07T19:24:52.641Z,40.10
2019-05-07T19:27:45.693Z,40.10
2019-05-07T19:30:41.914Z,40.20
2019-05-07T19:33:33.874Z,40.30
2019-05-07T19:36:26.438Z,40.30
2019-05-07T19:39:19.387Z,40.30
2019-05-07T19:42:14.024Z,40.40
2019-05-07T19:45:08.172Z,40.40
2019-05-07T19:48:02.895Z,40.40
2019-05-07T19:50:55.289Z,40.50
2019-05-07T19:53:48.014Z,40.50
2019-05-07T19:56:42.565Z,40.40
2019-05-07T19:59:34.964Z,40.50
2019-05-07T20:02:32.237Z,40.50
2019-05-07T20:05:24.739Z,40.40
2019-05-07T20:08:17.898Z,40.40
2019-05-07T20:11:16.139Z,40.40
2019-05-07T20:14:08.364Z,40.40
2019-05-07T20:17:01.229Z,40.30
2019-05-07T20:19:53.371Z,40.20
2019-05-07T20:22:46.580Z,40.10
2019-05-07T20:25:39.109Z,40.00
2019-05-07T20:28:32.704Z,40.00
2019-05-07T20:31:25.885Z,39.90
2019-05-07T20:34:18.992Z,39.80
2019-05-07T20:37:12.888Z,39.80
2019-05-07T20:40:05.386Z,39.40
2019-05-07T20:43:01.805Z,39.80
2019-05-07T20:45:54.113Z,39.90
2019-05-07T20:48:46.141Z,39.90
2019-05-07T20:51:41.764Z,39.90
2019-05-07T20:54:49.082Z,40.00
2019-05-07T20:57:44.447Z,39.80
2019-05-07T21:00:38.022Z,39.90
2019-05-07T21:03:32.486Z,39.90
2019-05-07T21:06:25.287Z,39.90
2019-05-07T21:09:17.541Z,39.90
2019-05-07T21:12:12.863Z,39.50
2019-05-07T21:15:09.139Z,40.00
2019-05-07T21:18:03.668Z,40.00
2019-05-07T21:20:56.095Z,40.10
2019-05-07T21:23:49.817Z,40.10
2019-05-07T21:26:44.377Z,40.10
2019-05-07T21:29:36.837Z,40.10
2019-05-07T21:32:29.429Z,40.10
2019-05-07T21:35:22.379Z,40.20
2019-05-07T21:38:15.452Z,40.20
2019-05-07T21:41:07.387Z,40.20
2019-05-07T21:43:59.608Z,40.10
2019-05-07T21:46:52.028Z,40.00
2019-05-07T21:49:44.590Z,40.40
2019-05-07T21:52:39.501Z,40.00
2019-05-07T21:56:02.542Z,40.00
2019-05-07T21:59:05.491Z,40.00
2019-05-07T22:02:03.230Z,40.00
2019-05-07T22:04:56.148Z,40.10
2019-05-07T22:07:49.850Z,40.10
2019-05-07T22:10:44.109Z,40.20
2019-05-07T22:13:37.118Z,40.20
2019-05-07T22:16:29.758Z,40.20
2019-05-07T22:19:21.859Z,40.20
2019-05-07T22:22:14.218Z,40.20
2019-05-07T22:25:06.667Z,40.20
2019-05-07T22:28:01.897Z,40.30
2019-05-07T22:31:12.599Z,40.40
2019-05-07T22:34:22.223Z,40.40
2019-05-07T22:37:15.215Z,40.40
2019-05-07T22:40:09.257Z,40.40
2019-05-07T22:43:02.771Z,40.30
2019-05-07T22:45:55.029Z,40.30
2019-05-07T22:48:47.979Z,40.30
2019-05-07T22:51:40.840Z,40.40
2019-05-07T22:54:33.106Z,40.40
2019-05-07T22:57:42.000Z,40.50
2019-05-07T23:00:39.806Z,40.60
2019-05-07T23:03:32.297Z,40.60
2019-05-07T23:06:24.780Z,40.70
2019-05-07T23:09:16.845Z,40.70
2019-05-07T23:12:08.866Z,40.80
2019-05-07T23:15:02.773Z,40.80
2019-05-07T23:17:55.329Z,40.80
2019-05-07T23:20:47.994Z,40.80
2019-05-07T23:23:42.193Z,40.90
2019-05-07T23:26:47.283Z,40.80
2019-05-07T23:29:28.042Z,40.90
2019-05-07T23:32:22.119Z,40.90
2019-05-07T23:35:14.595Z,41.10
2019-05-07T23:38:07.074Z,41.10
2019-05-07T23:41:16.031Z,41.10
2019-05-07T23:44:18.926Z,41.20
2019-05-07T23:47:12.138Z,41.10
2019-05-07T23:50:04.771Z,41.20
2019-05-07T23:52:56.851Z,41.20
2019-05-07T23:55:51.865Z,41.20
2019-05-07T23:58:43.964Z,41.20
